sensor_id;sensor_type;location;lat;lon;timestamp;P1;durP1;ratioP1;P2;durP2;ratioP2
15114;SDS011;7658;51.456;7.622;2023-05-07T00:01:53;9.63;;;7.75;;
15114;SDS011;7658;51.456;7.622;2023-05-07T00:04:19;8.65;;;7.32;;
15114;SDS011;7658;51.456;7.622;2023-05-07T00:06:45;8.70;;;7.80;;
15114;SDS011;7658;51.456;7.622;2023-05-07T00:09:11;9.80;;;8.07;;
15114;SDS011;7658;51.456;7.622;2023-05-07T00:11:37;10.05;;;8.48;;
15114;SDS011;7658;51.456;7.622;2023-05-07T00:14:03;11.02;;;8.18;;
15114;SDS011;7658;51.456;7.622;2023-05-07T00:16:29;9.75;;;7.65;;
15114;SDS011;7658;51.456;7.622;2023-05-07T00:18:54;10.48;;;8.00;;
15114;SDS011;7658;51.456;7.622;2023-05-07T00:21:20;12.27;;;8.70;;
15114;SDS011;7658;51.456;7.622;2023-05-07T00:23:46;9.02;;;8.13;;
15114;SDS011;7658;51.456;7.622;2023-05-07T00:26:12;10.45;;;9.25;;
15114;SDS011;7658;51.456;7.622;2023-05-07T00:28:38;9.55;;;8.23;;
15114;SDS011;7658;51.456;7.622;2023-05-07T00:31:04;10.65;;;8.52;;
15114;SDS011;7658;51.456;7.622;2023-05-07T00:33:30;11.73;;;8.82;;
15114;SDS011;7658;51.456;7.622;2023-05-07T00:35:55;10.52;;;8.60;;
15114;SDS011;7658;51.456;7.622;2023-05-07T00:38:21;9.57;;;8.02;;
15114;SDS011;7658;51.456;7.622;2023-05-07T00:40:47;8.38;;;7.40;;
15114;SDS011;7658;51.456;7.622;2023-05-07T00:43:12;12.77;;;8.18;;
15114;SDS011;7658;51.456;7.622;2023-05-07T00:45:38;9.30;;;8.18;;
15114;SDS011;7658;51.456;7.622;2023-05-07T00:48:04;8.75;;;7.50;;
15114;SDS011;7658;51.456;7.622;2023-05-07T00:50:30;10.05;;;7.75;;
15114;SDS011;7658;51.456;7.622;2023-05-07T00:52:57;8.85;;;7.60;;
15114;SDS011;7658;51.456;7.622;2023-05-07T00:55:24;8.30;;;7.50;;
15114;SDS011;7658;51.456;7.622;2023-05-07T00:57:50;8.60;;;7.72;;
15114;SDS011;7658;51.456;7.622;2023-05-07T01:00:16;10.23;;;7.95;;
15114;SDS011;7658;51.456;7.622;2023-05-07T01:02:43;11.10;;;8.35;;
15114;SDS011;7658;51.456;7.622;2023-05-07T01:05:09;12.35;;;8.55;;
15114;SDS011;7658;51.456;7.622;2023-05-07T01:07:38;10.20;;;8.48;;
15114;SDS011;7658;51.456;7.622;2023-05-07T01:10:06;9.68;;;8.45;;
15114;SDS011;7658;51.456;7.622;2023-05-07T01:12:34;10.27;;;8.07;;
15114;SDS011;7658;51.456;7.622;2023-05-07T01:15:02;12.07;;;9.10;;
15114;SDS011;7658;51.456;7.622;2023-05-07T01:17:32;11.93;;;8.85;;
15114;SDS011;7658;51.456;7.622;2023-05-07T01:20:02;9.82;;;8.20;;
15114;SDS011;7658;51.456;7.622;2023-05-07T01:22:30;11.52;;;9.02;;
15114;SDS011;7658;51.456;7.622;2023-05-07T01:25:01;10.93;;;9.10;;
15114;SDS011;7658;51.456;7.622;2023-05-07T01:27:32;10.35;;;9.20;;
15114;SDS011;7658;51.456;7.622;2023-05-07T01:30:02;10.10;;;9.07;;
15114;SDS011;7658;51.456;7.622;2023-05-07T01:32:32;10.43;;;8.80;;
15114;SDS011;7658;51.456;7.622;2023-05-07T01:35:02;10.27;;;9.13;;
15114;SDS011;7658;51.456;7.622;2023-05-07T01:37:30;11.93;;;9.23;;
15114;SDS011;7658;51.456;7.622;2023-05-07T01:39:57;9.98;;;8.90;;
15114;SDS011;7658;51.456;7.622;2023-05-07T01:42:23;10.68;;;9.38;;
15114;SDS011;7658;51.456;7.622;2023-05-07T01:44:49;13.02;;;9.90;;
15114;SDS011;7658;51.456;7.622;2023-05-07T01:47:14;13.07;;;9.73;;
15114;SDS011;7658;51.456;7.622;2023-05-07T01:49:41;10.52;;;9.07;;
15114;SDS011;7658;51.456;7.622;2023-05-07T01:52:09;12.23;;;9.63;;
15114;SDS011;7658;51.456;7.622;2023-05-07T01:54:36;10.90;;;8.40;;
15114;SDS011;7658;51.456;7.622;2023-05-07T01:57:01;11.88;;;9.10;;
15114;SDS011;7658;51.456;7.622;2023-05-07T01:59:27;11.02;;;8.65;;
15114;SDS011;7658;51.456;7.622;2023-05-07T02:01:53;13.88;;;9.85;;
15114;SDS011;7658;51.456;7.622;2023-05-07T02:04:19;11.00;;;9.10;;
15114;SDS011;7658;51.456;7.622;2023-05-07T02:06:44;12.70;;;8.85;;
15114;SDS011;7658;51.456;7.622;2023-05-07T02:09:10;11.02;;;9.10;;
15114;SDS011;7658;51.456;7.622;2023-05-07T02:11:36;11.85;;;8.90;;
15114;SDS011;7658;51.456;7.622;2023-05-07T02:14:02;10.63;;;9.45;;
15114;SDS011;7658;51.456;7.622;2023-05-07T02:16:28;10.30;;;8.82;;
15114;SDS011;7658;51.456;7.622;2023-05-07T02:18:53;10.65;;;8.85;;
15114;SDS011;7658;51.456;7.622;2023-05-07T02:21:19;12.85;;;9.05;;
15114;SDS011;7658;51.456;7.622;2023-05-07T02:23:45;11.30;;;9.65;;
15114;SDS011;7658;51.456;7.622;2023-05-07T02:26:11;13.10;;;8.95;;
15114;SDS011;7658;51.456;7.622;2023-05-07T02:28:37;10.00;;;8.50;;
15114;SDS011;7658;51.456;7.622;2023-05-07T02:31:03;12.05;;;9.05;;
15114;SDS011;7658;51.456;7.622;2023-05-07T02:33:29;9.52;;;7.82;;
15114;SDS011;7658;51.456;7.622;2023-05-07T02:35:55;11.43;;;8.75;;
15114;SDS011;7658;51.456;7.622;2023-05-07T02:38:21;13.88;;;9.13;;
15114;SDS011;7658;51.456;7.622;2023-05-07T02:40:48;10.63;;;8.45;;
15114;SDS011;7658;51.456;7.622;2023-05-07T02:43:13;12.18;;;8.27;;
15114;SDS011;7658;51.456;7.622;2023-05-07T02:45:39;10.25;;;8.75;;
15114;SDS011;7658;51.456;7.622;2023-05-07T02:48:05;10.13;;;7.78;;
15114;SDS011;7658;51.456;7.622;2023-05-07T02:50:31;9.88;;;8.55;;
15114;SDS011;7658;51.456;7.622;2023-05-07T02:52:57;10.02;;;8.63;;
15114;SDS011;7658;51.456;7.622;2023-05-07T02:55:23;11.00;;;8.82;;
15114;SDS011;7658;51.456;7.622;2023-05-07T02:57:49;10.00;;;7.97;;
15114;SDS011;7658;51.456;7.622;2023-05-07T03:00:16;13.90;;;8.90;;
15114;SDS011;7658;51.456;7.622;2023-05-07T03:02:46;10.70;;;9.43;;
15114;SDS011;7658;51.456;7.622;2023-05-07T03:05:12;9.57;;;8.48;;
15114;SDS011;7658;51.456;7.622;2023-05-07T03:07:39;7.93;;;7.13;;
15114;SDS011;7658;51.456;7.622;2023-05-07T03:10:06;9.80;;;8.70;;
15114;SDS011;7658;51.456;7.622;2023-05-07T03:12:32;10.55;;;8.48;;
15114;SDS011;7658;51.456;7.622;2023-05-07T03:14:58;10.50;;;8.68;;
15114;SDS011;7658;51.456;7.622;2023-05-07T03:17:23;10.68;;;8.32;;
15114;SDS011;7658;51.456;7.622;2023-05-07T03:19:49;10.10;;;8.30;;
15114;SDS011;7658;51.456;7.622;2023-05-07T03:22:15;9.93;;;8.48;;
15114;SDS011;7658;51.456;7.622;2023-05-07T03:24:41;10.18;;;8.48;;
15114;SDS011;7658;51.456;7.622;2023-05-07T03:27:07;9.43;;;8.25;;
15114;SDS011;7658;51.456;7.622;2023-05-07T03:29:32;11.57;;;8.15;;
15114;SDS011;7658;51.456;7.622;2023-05-07T03:31:58;10.70;;;8.15;;
15114;SDS011;7658;51.456;7.622;2023-05-07T03:34:24;8.60;;;7.78;;
15114;SDS011;7658;51.456;7.622;2023-05-07T03:36:50;9.30;;;7.88;;
15114;SDS011;7658;51.456;7.622;2023-05-07T03:39:16;9.23;;;8.23;;
15114;SDS011;7658;51.456;7.622;2023-05-07T03:41:42;10.27;;;7.90;;
15114;SDS011;7658;51.456;7.622;2023-05-07T03:44:08;9.77;;;7.80;;
15114;SDS011;7658;51.456;7.622;2023-05-07T03:46:33;10.48;;;7.95;;
15114;SDS011;7658;51.456;7.622;2023-05-07T03:48:59;10.40;;;8.20;;
15114;SDS011;7658;51.456;7.622;2023-05-07T03:51:25;8.68;;;7.78;;
15114;SDS011;7658;51.456;7.622;2023-05-07T03:53:51;9.00;;;8.10;;
15114;SDS011;7658;51.456;7.622;2023-05-07T03:56:22;12.07;;;8.30;;
15114;SDS011;7658;51.456;7.622;2023-05-07T03:58:51;8.63;;;7.55;;
15114;SDS011;7658;51.456;7.622;2023-05-07T04:01:17;9.85;;;8.20;;
15114;SDS011;7658;51.456;7.622;2023-05-07T04:03:43;8.90;;;7.60;;
15114;SDS011;7658;51.456;7.622;2023-05-07T04:06:08;10.15;;;7.97;;
15114;SDS011;7658;51.456;7.622;2023-05-07T04:08:34;8.00;;;7.15;;
15114;SDS011;7658;51.456;7.622;2023-05-07T04:11:00;8.80;;;7.90;;
15114;SDS011;7658;51.456;7.622;2023-05-07T04:13:26;9.65;;;7.30;;
15114;SDS011;7658;51.456;7.622;2023-05-07T04:15:52;9.63;;;8.20;;
15114;SDS011;7658;51.456;7.622;2023-05-07T04:18:18;10.35;;;7.72;;
15114;SDS011;7658;51.456;7.622;2023-05-07T04:20:45;8.90;;;7.60;;
15114;SDS011;7658;51.456;7.622;2023-05-07T04:23:11;8.73;;;7.65;;
15114;SDS011;7658;51.456;7.622;2023-05-07T04:25:37;8.45;;;7.45;;
15114;SDS011;7658;51.456;7.622;2023-05-07T04:28:03;9.40;;;7.85;;
15114;SDS011;7658;51.456;7.622;2023-05-07T04:30:29;9.48;;;7.30;;
15114;SDS011;7658;51.456;7.622;2023-05-07T04:32:55;8.13;;;7.13;;
15114;SDS011;7658;51.456;7.622;2023-05-07T04:35:22;8.27;;;7.45;;
15114;SDS011;7658;51.456;7.622;2023-05-07T04:37:47;8.80;;;7.60;;
15114;SDS011;7658;51.456;7.622;2023-05-07T04:40:13;8.30;;;7.50;;
15114;SDS011;7658;51.456;7.622;2023-05-07T04:42:39;9.18;;;7.40;;
15114;SDS011;7658;51.456;7.622;2023-05-07T04:45:05;10.20;;;7.28;;
15114;SDS011;7658;51.456;7.622;2023-05-07T04:47:31;8.90;;;7.80;;
15114;SDS011;7658;51.456;7.622;2023-05-07T04:49:57;8.93;;;7.55;;
15114;SDS011;7658;51.456;7.622;2023-05-07T04:52:23;8.90;;;7.38;;
15114;SDS011;7658;51.456;7.622;2023-05-07T04:54:49;8.10;;;7.30;;
15114;SDS011;7658;51.456;7.622;2023-05-07T04:57:15;11.05;;;7.78;;
15114;SDS011;7658;51.456;7.622;2023-05-07T04:59:42;7.60;;;6.85;;
15114;SDS011;7658;51.456;7.622;2023-05-07T05:02:09;8.57;;;7.22;;
15114;SDS011;7658;51.456;7.622;2023-05-07T05:04:35;11.45;;;7.78;;
15114;SDS011;7658;51.456;7.622;2023-05-07T05:07:02;9.75;;;7.13;;
15114;SDS011;7658;51.456;7.622;2023-05-07T05:09:32;8.07;;;7.28;;
15114;SDS011;7658;51.456;7.622;2023-05-07T05:11:58;8.70;;;7.10;;
15114;SDS011;7658;51.456;7.622;2023-05-07T05:14:24;7.80;;;6.78;;
15114;SDS011;7658;51.456;7.622;2023-05-07T05:16:50;6.97;;;6.25;;
15114;SDS011;7658;51.456;7.622;2023-05-07T05:19:16;8.18;;;7.35;;
15114;SDS011;7658;51.456;7.622;2023-05-07T05:21:42;7.38;;;6.63;;
15114;SDS011;7658;51.456;7.622;2023-05-07T05:24:08;6.90;;;6.20;;
15114;SDS011;7658;51.456;7.622;2023-05-07T05:26:34;6.93;;;5.82;;
15114;SDS011;7658;51.456;7.622;2023-05-07T05:29:00;8.38;;;6.50;;
15114;SDS011;7658;51.456;7.622;2023-05-07T05:31:25;7.97;;;6.20;;
15114;SDS011;7658;51.456;7.622;2023-05-07T05:33:51;7.10;;;6.25;;
15114;SDS011;7658;51.456;7.622;2023-05-07T05:36:17;6.35;;;5.75;;
15114;SDS011;7658;51.456;7.622;2023-05-07T05:38:43;7.30;;;6.07;;
15114;SDS011;7658;51.456;7.622;2023-05-07T05:41:09;6.97;;;6.22;;
15114;SDS011;7658;51.456;7.622;2023-05-07T05:43:35;6.03;;;5.40;;
15114;SDS011;7658;51.456;7.622;2023-05-07T05:46:01;6.50;;;5.90;;
15114;SDS011;7658;51.456;7.622;2023-05-07T05:48:28;6.53;;;5.55;;
15114;SDS011;7658;51.456;7.622;2023-05-07T05:50:54;8.52;;;6.60;;
15114;SDS011;7658;51.456;7.622;2023-05-07T05:53:20;8.15;;;6.13;;
15114;SDS011;7658;51.456;7.622;2023-05-07T05:55:45;7.30;;;6.10;;
15114;SDS011;7658;51.456;7.622;2023-05-07T05:58:12;7.50;;;6.10;;
15114;SDS011;7658;51.456;7.622;2023-05-07T06:00:40;8.77;;;6.25;;
15114;SDS011;7658;51.456;7.622;2023-05-07T06:03:05;7.28;;;5.75;;
15114;SDS011;7658;51.456;7.622;2023-05-07T06:05:32;6.80;;;5.63;;
15114;SDS011;7658;51.456;7.622;2023-05-07T06:08:02;7.18;;;5.70;;
15114;SDS011;7658;51.456;7.622;2023-05-07T06:10:28;8.68;;;6.15;;
15114;SDS011;7658;51.456;7.622;2023-05-07T06:12:55;7.78;;;5.45;;
15114;SDS011;7658;51.456;7.622;2023-05-07T06:15:20;6.50;;;5.82;;
15114;SDS011;7658;51.456;7.622;2023-05-07T06:17:46;8.30;;;5.45;;
15114;SDS011;7658;51.456;7.622;2023-05-07T06:20:12;6.18;;;5.15;;
15114;SDS011;7658;51.456;7.622;2023-05-07T06:22:38;6.32;;;5.20;;
15114;SDS011;7658;51.456;7.622;2023-05-07T06:25:03;7.70;;;5.00;;
15114;SDS011;7658;51.456;7.622;2023-05-07T06:27:30;6.53;;;4.78;;
15114;SDS011;7658;51.456;7.622;2023-05-07T06:29:56;8.93;;;5.72;;
15114;SDS011;7658;51.456;7.622;2023-05-07T06:32:21;8.40;;;5.00;;
15114;SDS011;7658;51.456;7.622;2023-05-07T06:34:47;6.47;;;5.20;;
15114;SDS011;7658;51.456;7.622;2023-05-07T06:37:14;6.22;;;5.07;;
15114;SDS011;7658;51.456;7.622;2023-05-07T06:39:40;4.90;;;4.35;;
15114;SDS011;7658;51.456;7.622;2023-05-07T06:42:08;5.53;;;4.90;;
15114;SDS011;7658;51.456;7.622;2023-05-07T06:44:37;4.97;;;4.30;;
15114;SDS011;7658;51.456;7.622;2023-05-07T06:47:04;6.72;;;5.10;;
15114;SDS011;7658;51.456;7.622;2023-05-07T06:49:32;7.38;;;4.82;;
15114;SDS011;7658;51.456;7.622;2023-05-07T06:51:58;5.72;;;4.82;;
15114;SDS011;7658;51.456;7.622;2023-05-07T06:54:28;5.28;;;4.30;;
15114;SDS011;7658;51.456;7.622;2023-05-07T06:56:58;6.03;;;4.57;;
15114;SDS011;7658;51.456;7.622;2023-05-07T06:59:25;8.38;;;4.78;;
15114;SDS011;7658;51.456;7.622;2023-05-07T07:01:53;6.22;;;4.28;;
15114;SDS011;7658;51.456;7.622;2023-05-07T07:04:21;8.65;;;4.95;;
15114;SDS011;7658;51.456;7.622;2023-05-07T07:06:52;6.13;;;4.00;;
15114;SDS011;7658;51.456;7.622;2023-05-07T07:09:19;5.82;;;4.28;;
15114;SDS011;7658;51.456;7.622;2023-05-07T07:11:49;6.43;;;4.38;;
15114;SDS011;7658;51.456;7.622;2023-05-07T07:14:17;5.03;;;4.07;;
15114;SDS011;7658;51.456;7.622;2023-05-07T07:16:43;5.68;;;3.83;;
15114;SDS011;7658;51.456;7.622;2023-05-07T07:19:12;5.32;;;4.00;;
15114;SDS011;7658;51.456;7.622;2023-05-07T07:21:40;5.07;;;3.63;;
15114;SDS011;7658;51.456;7.622;2023-05-07T07:24:10;4.65;;;4.22;;
15114;SDS011;7658;51.456;7.622;2023-05-07T07:26:46;4.18;;;3.78;;
15114;SDS011;7658;51.456;7.622;2023-05-07T07:29:13;4.82;;;4.30;;
15114;SDS011;7658;51.456;7.622;2023-05-07T07:31:39;4.05;;;3.60;;
15114;SDS011;7658;51.456;7.622;2023-05-07T07:34:05;5.40;;;3.60;;
15114;SDS011;7658;51.456;7.622;2023-05-07T07:36:31;5.40;;;4.05;;
15114;SDS011;7658;51.456;7.622;2023-05-07T07:38:56;4.95;;;3.40;;
15114;SDS011;7658;51.456;7.622;2023-05-07T07:41:22;7.05;;;4.30;;
15114;SDS011;7658;51.456;7.622;2023-05-07T07:43:48;4.32;;;3.90;;
15114;SDS011;7658;51.456;7.622;2023-05-07T07:46:14;4.70;;;3.50;;
15114;SDS011;7658;51.456;7.622;2023-05-07T07:48:39;4.40;;;3.80;;
15114;SDS011;7658;51.456;7.622;2023-05-07T07:51:05;4.40;;;4.00;;
15114;SDS011;7658;51.456;7.622;2023-05-07T07:53:31;7.57;;;4.07;;
15114;SDS011;7658;51.456;7.622;2023-05-07T07:55:57;6.32;;;3.55;;
15114;SDS011;7658;51.456;7.622;2023-05-07T07:58:22;6.70;;;4.18;;
15114;SDS011;7658;51.456;7.622;2023-05-07T08:00:49;5.00;;;3.97;;
15114;SDS011;7658;51.456;7.622;2023-05-07T08:03:16;5.07;;;3.90;;
15114;SDS011;7658;51.456;7.622;2023-05-07T08:05:42;4.38;;;3.60;;
15114;SDS011;7658;51.456;7.622;2023-05-07T08:08:08;5.28;;;3.65;;
15114;SDS011;7658;51.456;7.622;2023-05-07T08:10:34;5.40;;;3.60;;
15114;SDS011;7658;51.456;7.622;2023-05-07T08:13:03;5.28;;;3.50;;
15114;SDS011;7658;51.456;7.622;2023-05-07T08:15:29;4.72;;;3.97;;
15114;SDS011;7658;51.456;7.622;2023-05-07T08:17:55;4.65;;;3.85;;
15114;SDS011;7658;51.456;7.622;2023-05-07T08:20:22;4.22;;;3.30;;
15114;SDS011;7658;51.456;7.622;2023-05-07T08:22:48;4.45;;;3.40;;
15114;SDS011;7658;51.456;7.622;2023-05-07T08:25:15;3.92;;;3.42;;
15114;SDS011;7658;51.456;7.622;2023-05-07T08:27:41;5.30;;;3.35;;
15114;SDS011;7658;51.456;7.622;2023-05-07T08:30:07;4.97;;;3.42;;
15114;SDS011;7658;51.456;7.622;2023-05-07T08:32:33;3.78;;;2.78;;
15114;SDS011;7658;51.456;7.622;2023-05-07T08:34:59;5.93;;;3.45;;
15114;SDS011;7658;51.456;7.622;2023-05-07T08:37:25;4.63;;;3.85;;
15114;SDS011;7658;51.456;7.622;2023-05-07T08:39:51;4.38;;;3.30;;
15114;SDS011;7658;51.456;7.622;2023-05-07T08:42:17;5.40;;;3.47;;
15114;SDS011;7658;51.456;7.622;2023-05-07T08:44:44;5.30;;;3.40;;
15114;SDS011;7658;51.456;7.622;2023-05-07T08:47:13;3.40;;;3.10;;
15114;SDS011;7658;51.456;7.622;2023-05-07T08:49:39;8.23;;;3.85;;
15114;SDS011;7658;51.456;7.622;2023-05-07T08:52:05;3.75;;;3.05;;
15114;SDS011;7658;51.456;7.622;2023-05-07T08:54:31;5.32;;;3.15;;
15114;SDS011;7658;51.456;7.622;2023-05-07T08:56:57;4.30;;;3.15;;
15114;SDS011;7658;51.456;7.622;2023-05-07T08:59:23;4.22;;;3.40;;
15114;SDS011;7658;51.456;7.622;2023-05-07T09:01:49;4.70;;;2.83;;
15114;SDS011;7658;51.456;7.622;2023-05-07T09:04:15;4.10;;;2.70;;
15114;SDS011;7658;51.456;7.622;2023-05-07T09:06:40;4.97;;;2.97;;
15114;SDS011;7658;51.456;7.622;2023-05-07T09:09:07;4.80;;;2.83;;
15114;SDS011;7658;51.456;7.622;2023-05-07T09:11:33;3.97;;;2.88;;
15114;SDS011;7658;51.456;7.622;2023-05-07T09:13:59;3.53;;;2.60;;
15114;SDS011;7658;51.456;7.622;2023-05-07T09:16:26;3.42;;;2.55;;
15114;SDS011;7658;51.456;7.622;2023-05-07T09:18:54;3.08;;;2.42;;
15114;SDS011;7658;51.456;7.622;2023-05-07T09:21:20;3.90;;;2.72;;
15114;SDS011;7658;51.456;7.622;2023-05-07T09:23:51;3.00;;;2.70;;
15114;SDS011;7658;51.456;7.622;2023-05-07T09:26:22;7.18;;;3.20;;
15114;SDS011;7658;51.456;7.622;2023-05-07T09:28:54;4.80;;;2.83;;
15114;SDS011;7658;51.456;7.622;2023-05-07T09:31:21;4.20;;;3.33;;
15114;SDS011;7658;51.456;7.622;2023-05-07T09:33:48;4.95;;;3.05;;
15114;SDS011;7658;51.456;7.622;2023-05-07T09:36:15;9.00;;;4.57;;
15114;SDS011;7658;51.456;7.622;2023-05-07T09:38:43;8.00;;;4.25;;
15114;SDS011;7658;51.456;7.622;2023-05-07T09:41:11;5.55;;;4.32;;
15114;SDS011;7658;51.456;7.622;2023-05-07T09:43:39;9.80;;;6.20;;
15114;SDS011;7658;51.456;7.622;2023-05-07T09:46:11;7.63;;;5.70;;
15114;SDS011;7658;51.456;7.622;2023-05-07T09:48:39;6.50;;;5.05;;
15114;SDS011;7658;51.456;7.622;2023-05-07T09:51:51;6.80;;;5.57;;
15114;SDS011;7658;51.456;7.622;2023-05-07T09:53:56;9.75;;;6.30;;
15114;SDS011;7658;51.456;7.622;2023-05-07T09:56:25;11.40;;;7.97;;
15114;SDS011;7658;51.456;7.622;2023-05-07T09:58:54;10.93;;;8.27;;
15114;SDS011;7658;51.456;7.622;2023-05-07T10:01:24;10.65;;;8.55;;
15114;SDS011;7658;51.456;7.622;2023-05-07T10:03:51;10.98;;;8.38;;
15114;SDS011;7658;51.456;7.622;2023-05-07T10:06:19;9.35;;;7.47;;
15114;SDS011;7658;51.456;7.622;2023-05-07T10:08:46;9.23;;;7.32;;
15114;SDS011;7658;51.456;7.622;2023-05-07T10:11:14;8.30;;;6.57;;
15114;SDS011;7658;51.456;7.622;2023-05-07T10:13:41;8.07;;;6.75;;
15114;SDS011;7658;51.456;7.622;2023-05-07T10:16:08;5.70;;;4.25;;
15114;SDS011;7658;51.456;7.622;2023-05-07T10:18:34;10.52;;;6.85;;
15114;SDS011;7658;51.456;7.622;2023-05-07T10:21:07;8.27;;;5.97;;
15114;SDS011;7658;51.456;7.622;2023-05-07T10:23:36;8.15;;;6.35;;
15114;SDS011;7658;51.456;7.622;2023-05-07T10:26:04;10.02;;;8.05;;
15114;SDS011;7658;51.456;7.622;2023-05-07T10:28:34;17.50;;;13.70;;
15114;SDS011;7658;51.456;7.622;2023-05-07T10:33:54;12.93;;;10.18;;
15114;SDS011;7658;51.456;7.622;2023-05-07T10:36:22;11.35;;;9.40;;
15114;SDS011;7658;51.456;7.622;2023-05-07T10:38:49;13.70;;;10.35;;
15114;SDS011;7658;51.456;7.622;2023-05-07T10:41:14;14.30;;;10.75;;
15114;SDS011;7658;51.456;7.622;2023-05-07T10:43:43;12.05;;;10.40;;
15114;SDS011;7658;51.456;7.622;2023-05-07T10:46:10;11.60;;;8.98;;
15114;SDS011;7658;51.456;7.622;2023-05-07T10:51:31;11.32;;;8.13;;
15114;SDS011;7658;51.456;7.622;2023-05-07T10:56:33;10.25;;;7.97;;
15114;SDS011;7658;51.456;7.622;2023-05-07T10:59:22;11.77;;;9.13;;
15114;SDS011;7658;51.456;7.622;2023-05-07T11:04:27;15.05;;;10.13;;
15114;SDS011;7658;51.456;7.622;2023-05-07T11:17:31;12.48;;;9.45;;
15114;SDS011;7658;51.456;7.622;2023-05-07T11:19:59;12.30;;;10.00;;
15114;SDS011;7658;51.456;7.622;2023-05-07T11:25:01;13.23;;;10.43;;
15114;SDS011;7658;51.456;7.622;2023-05-07T11:27:28;17.27;;;9.75;;
15114;SDS011;7658;51.456;7.622;2023-05-07T11:29:55;12.57;;;8.82;;
15114;SDS011;7658;51.456;7.622;2023-05-07T11:32:28;14.13;;;9.88;;
15114;SDS011;7658;51.456;7.622;2023-05-07T11:34:55;10.57;;;8.77;;
15114;SDS011;7658;51.456;7.622;2023-05-07T11:37:23;12.57;;;9.75;;
15114;SDS011;7658;51.456;7.622;2023-05-07T11:39:50;16.27;;;11.18;;
15114;SDS011;7658;51.456;7.622;2023-05-07T11:42:27;13.15;;;10.63;;
15114;SDS011;7658;51.456;7.622;2023-05-07T11:44:54;12.90;;;9.20;;
15114;SDS011;7658;51.456;7.622;2023-05-07T11:47:20;10.60;;;8.10;;
15114;SDS011;7658;51.456;7.622;2023-05-07T11:49:50;13.38;;;9.98;;
15114;SDS011;7658;51.456;7.622;2023-05-07T11:52:17;14.02;;;9.98;;
15114;SDS011;7658;51.456;7.622;2023-05-07T11:57:20;12.43;;;10.88;;
15114;SDS011;7658;51.456;7.622;2023-05-07T11:59:47;14.95;;;11.80;;
15114;SDS011;7658;51.456;7.622;2023-05-07T12:02:13;13.98;;;11.18;;
15114;SDS011;7658;51.456;7.622;2023-05-07T12:04:40;15.32;;;11.40;;
15114;SDS011;7658;51.456;7.622;2023-05-07T12:07:11;13.05;;;11.00;;
15114;SDS011;7658;51.456;7.622;2023-05-07T12:09:38;16.30;;;11.57;;
15114;SDS011;7658;51.456;7.622;2023-05-07T12:12:04;13.52;;;11.60;;
15114;SDS011;7658;51.456;7.622;2023-05-07T12:14:30;14.27;;;10.82;;
15114;SDS011;7658;51.456;7.622;2023-05-07T12:16:57;16.02;;;11.15;;
15114;SDS011;7658;51.456;7.622;2023-05-07T12:19:30;11.00;;;9.82;;
15114;SDS011;7658;51.456;7.622;2023-05-07T12:21:56;12.50;;;10.25;;
15114;SDS011;7658;51.456;7.622;2023-05-07T12:24:22;11.98;;;9.10;;
15114;SDS011;7658;51.456;7.622;2023-05-07T12:26:48;13.52;;;9.82;;
15114;SDS011;7658;51.456;7.622;2023-05-07T12:29:14;10.02;;;8.75;;
15114;SDS011;7658;51.456;7.622;2023-05-07T12:31:41;11.00;;;9.23;;
15114;SDS011;7658;51.456;7.622;2023-05-07T12:34:07;11.32;;;9.32;;
15114;SDS011;7658;51.456;7.622;2023-05-07T12:36:39;10.13;;;8.18;;
15114;SDS011;7658;51.456;7.622;2023-05-07T12:39:06;13.05;;;9.25;;
15114;SDS011;7658;51.456;7.622;2023-05-07T12:44:18;10.70;;;8.63;;
15114;SDS011;7658;51.456;7.622;2023-05-07T12:46:46;9.38;;;7.05;;
15114;SDS011;7658;51.456;7.622;2023-05-07T12:49:12;12.13;;;8.75;;
15114;SDS011;7658;51.456;7.622;2023-05-07T12:51:37;10.85;;;8.10;;
15114;SDS011;7658;51.456;7.622;2023-05-07T12:54:03;11.40;;;8.55;;
15114;SDS011;7658;51.456;7.622;2023-05-07T12:56:35;10.55;;;8.57;;
15114;SDS011;7658;51.456;7.622;2023-05-07T12:59:01;10.90;;;8.20;;
15114;SDS011;7658;51.456;7.622;2023-05-07T13:01:28;9.48;;;8.27;;
15114;SDS011;7658;51.456;7.622;2023-05-07T13:04:00;9.68;;;7.70;;
15114;SDS011;7658;51.456;7.622;2023-05-07T13:06:27;9.40;;;8.10;;
15114;SDS011;7658;51.456;7.622;2023-05-07T13:08:55;9.65;;;7.53;;
15114;SDS011;7658;51.456;7.622;2023-05-07T13:11:21;12.23;;;8.30;;
15114;SDS011;7658;51.456;7.622;2023-05-07T13:13:47;10.55;;;8.07;;
15114;SDS011;7658;51.456;7.622;2023-05-07T13:16:13;11.95;;;8.45;;
15114;SDS011;7658;51.456;7.622;2023-05-07T13:18:39;9.20;;;7.72;;
15114;SDS011;7658;51.456;7.622;2023-05-07T13:21:05;12.73;;;8.25;;
15114;SDS011;7658;51.456;7.622;2023-05-07T13:23:31;12.57;;;9.07;;
15114;SDS011;7658;51.456;7.622;2023-05-07T13:25:57;11.73;;;8.05;;
15114;SDS011;7658;51.456;7.622;2023-05-07T13:28:23;11.02;;;7.78;;
15114;SDS011;7658;51.456;7.622;2023-05-07T13:30:49;9.38;;;7.38;;
15114;SDS011;7658;51.456;7.622;2023-05-07T13:33:17;10.10;;;8.15;;
15114;SDS011;7658;51.456;7.622;2023-05-07T13:35:43;9.70;;;7.43;;
15114;SDS011;7658;51.456;7.622;2023-05-07T13:38:09;11.52;;;7.72;;
15114;SDS011;7658;51.456;7.622;2023-05-07T13:40:35;8.60;;;6.82;;
15114;SDS011;7658;51.456;7.622;2023-05-07T13:43:01;10.57;;;7.18;;
15114;SDS011;7658;51.456;7.622;2023-05-07T13:45:27;9.27;;;7.40;;
15114;SDS011;7658;51.456;7.622;2023-05-07T13:47:54;10.90;;;6.97;;
15114;SDS011;7658;51.456;7.622;2023-05-07T13:50:21;9.98;;;6.90;;
15114;SDS011;7658;51.456;7.622;2023-05-07T13:52:46;9.15;;;6.85;;
15114;SDS011;7658;51.456;7.622;2023-05-07T13:55:18;8.80;;;6.05;;
15114;SDS011;7658;51.456;7.622;2023-05-07T13:57:46;7.05;;;5.65;;
15114;SDS011;7658;51.456;7.622;2023-05-07T14:00:13;8.57;;;6.00;;
15114;SDS011;7658;51.456;7.622;2023-05-07T14:02:39;8.70;;;6.70;;
15114;SDS011;7658;51.456;7.622;2023-05-07T14:05:05;8.55;;;6.00;;
15114;SDS011;7658;51.456;7.622;2023-05-07T14:07:32;10.75;;;6.35;;
15114;SDS011;7658;51.456;7.622;2023-05-07T14:09:58;8.98;;;6.13;;
15114;SDS011;7658;51.456;7.622;2023-05-07T14:12:24;10.25;;;6.18;;
15114;SDS011;7658;51.456;7.622;2023-05-07T14:14:49;9.05;;;6.28;;
15114;SDS011;7658;51.456;7.622;2023-05-07T14:17:18;7.35;;;6.30;;
15114;SDS011;7658;51.456;7.622;2023-05-07T14:19:45;11.05;;;6.18;;
15114;SDS011;7658;51.456;7.622;2023-05-07T14:22:13;9.20;;;6.85;;
15114;SDS011;7658;51.456;7.622;2023-05-07T14:24:40;8.98;;;7.03;;
15114;SDS011;7658;51.456;7.622;2023-05-07T14:27:05;7.55;;;6.28;;
15114;SDS011;7658;51.456;7.622;2023-05-07T14:29:31;8.80;;;6.78;;
15114;SDS011;7658;51.456;7.622;2023-05-07T14:31:57;9.80;;;6.60;;
15114;SDS011;7658;51.456;7.622;2023-05-07T14:34:23;10.48;;;6.07;;
15114;SDS011;7658;51.456;7.622;2023-05-07T14:36:49;7.47;;;5.72;;
15114;SDS011;7658;51.456;7.622;2023-05-07T14:39:14;8.43;;;5.88;;
15114;SDS011;7658;51.456;7.622;2023-05-07T14:41:40;8.10;;;5.88;;
15114;SDS011;7658;51.456;7.622;2023-05-07T14:44:06;8.75;;;6.43;;
15114;SDS011;7658;51.456;7.622;2023-05-07T14:46:32;12.57;;;6.15;;
15114;SDS011;7658;51.456;7.622;2023-05-07T14:48:57;6.28;;;5.47;;
15114;SDS011;7658;51.456;7.622;2023-05-07T14:51:23;7.45;;;6.20;;
15114;SDS011;7658;51.456;7.622;2023-05-07T14:53:49;6.75;;;5.15;;
15114;SDS011;7658;51.456;7.622;2023-05-07T14:56:15;8.48;;;5.40;;
15114;SDS011;7658;51.456;7.622;2023-05-07T14:58:42;8.00;;;5.38;;
15114;SDS011;7658;51.456;7.622;2023-05-07T15:01:08;6.80;;;5.50;;
15114;SDS011;7658;51.456;7.622;2023-05-07T15:03:34;8.82;;;6.22;;
15114;SDS011;7658;51.456;7.622;2023-05-07T15:06:00;7.13;;;5.68;;
15114;SDS011;7658;51.456;7.622;2023-05-07T15:08:26;7.75;;;6.03;;
15114;SDS011;7658;51.456;7.622;2023-05-07T15:10:52;8.63;;;6.60;;
15114;SDS011;7658;51.456;7.622;2023-05-07T15:13:18;7.88;;;5.80;;
15114;SDS011;7658;51.456;7.622;2023-05-07T15:15:44;8.65;;;6.18;;
15114;SDS011;7658;51.456;7.622;2023-05-07T15:18:10;7.75;;;5.82;;
15114;SDS011;7658;51.456;7.622;2023-05-07T15:20:36;9.60;;;6.22;;
15114;SDS011;7658;51.456;7.622;2023-05-07T15:23:02;9.43;;;6.32;;